Terminal Aerodrome Forecast
Issued by NWS Albany, NY

Home | Current Version | Previous Version | Text Only | Print | Product List | Glossary On
Versions: 1 2 3 4 5 6 7 8 9 10 11 12 13 14 15 16 17 18
000
FTUS41 KALY 271731
TAFPOU
TAF
KPOU 271731Z 2718/2818 19010G15KT P6SM BKN050
     FM272000 19011G21KT P6SM VCTS BKN035CB
      TEMPO 2723/2724 VRB15G35KT 3SM -TSRA BR BKN015CB OVC035
     FM280200 18006KT P6SM VCSH BKN080
     FM280400 VRB02KT 4SM BR BKN080
     FM281000 VRB02KT 3SM BR SCT010 BKN035
     FM281400 22006KT P6SM SCT035 OVC080=

USA.gov is the U.S. government's official web portal to all federal, state and local government web resources and services.